createdAt,value
2018-06-10T00:02:45.224Z,88.10
2018-06-10T00:05:13.556Z,89.83
2018-06-10T00:07:41.868Z,86.30
2018-06-10T00:10:10.203Z,90.17
2018-06-10T00:12:38.508Z,89.10
2018-06-10T00:15:06.872Z,97.87
2018-06-10T00:17:35.167Z,107.90
2018-06-10T00:20:03.498Z,98.70
2018-06-10T00:22:31.881Z,99.67
2018-06-10T00:25:00.111Z,96.60
2018-06-10T00:27:28.421Z,91.37
2018-06-10T00:29:56.684Z,92.60
2018-06-10T00:32:24.968Z,93.77
2018-06-10T00:34:53.262Z,96.60
2018-06-10T00:37:21.583Z,105.40
2018-06-10T00:39:49.840Z,93.70
2018-06-10T00:42:18.084Z,95.00
2018-06-10T00:44:46.470Z,98.63
2018-06-10T00:47:14.777Z,98.33
2018-06-10T00:49:43.092Z,97.70
2018-06-10T00:52:11.433Z,91.77
2018-06-10T00:54:39.738Z,94.90
2018-06-10T00:57:08.067Z,95.47
2018-06-10T00:59:36.308Z,93.90
2018-06-10T01:02:04.626Z,93.40
2018-06-10T01:04:32.896Z,95.00
2018-06-10T01:07:01.217Z,96.87
2018-06-10T01:09:29.528Z,95.77
2018-06-10T01:11:57.850Z,91.33
2018-06-10T01:14:26.158Z,98.60
2018-06-10T01:16:54.533Z,106.93
2018-06-10T01:19:22.868Z,102.90
2018-06-10T01:21:51.140Z,106.07
2018-06-10T01:24:19.524Z,108.47
2018-06-10T01:26:51.539Z,105.20
2018-06-10T01:29:19.838Z,99.97
2018-06-10T01:31:48.123Z,105.87
2018-06-10T01:34:16.371Z,107.80
2018-06-10T01:36:44.691Z,102.50
2018-06-10T01:39:12.948Z,97.37
2018-06-10T01:41:41.210Z,100.10
2018-06-10T01:44:09.537Z,109.10
2018-06-10T01:46:38.372Z,101.73
2018-06-10T01:49:06.662Z,103.50
2018-06-10T01:51:34.964Z,98.70
2018-06-10T01:54:03.321Z,98.87
2018-06-10T01:56:31.607Z,99.63
2018-06-10T01:58:59.926Z,96.27
2018-06-10T02:01:28.218Z,97.60
2018-06-10T02:03:56.530Z,93.57
2018-06-10T02:06:24.825Z,94.70
2018-06-10T02:08:53.106Z,92.33
2018-06-10T02:11:21.898Z,99.87
2018-06-10T02:13:50.169Z,97.47
2018-06-10T02:16:18.524Z,100.03
2018-06-10T02:18:46.822Z,98.70
2018-06-10T02:21:15.172Z,97.30
2018-06-10T02:23:43.468Z,93.80
2018-06-10T02:26:11.790Z,96.70
2018-06-10T02:28:40.023Z,99.67
2018-06-10T02:31:08.335Z,95.10
2018-06-10T02:33:36.628Z,95.60
2018-06-10T02:36:04.972Z,97.47
2018-06-10T02:38:33.341Z,99.20
2018-06-10T02:41:01.680Z,97.60
2018-06-10T02:43:30.018Z,100.17
2018-06-10T02:45:58.379Z,100.67
2018-06-10T02:48:27.202Z,99.10
2018-06-10T02:50:55.492Z,98.57
2018-06-10T02:53:23.756Z,95.13
2018-06-10T02:55:52.076Z,94.30
2018-06-10T02:58:20.319Z,101.37
2018-06-10T03:00:48.625Z,101.73
2018-06-10T03:03:16.874Z,104.87
2018-06-10T03:05:45.137Z,104.77
2018-06-10T03:08:13.421Z,101.70
2018-06-10T03:10:41.740Z,99.50
2018-06-10T03:13:10.050Z,94.57
2018-06-10T03:15:38.376Z,103.63
2018-06-10T03:18:06.670Z,99.53
2018-06-10T03:20:34.925Z,98.53
2018-06-10T03:23:03.251Z,101.87
2018-06-10T03:25:31.536Z,97.67
2018-06-10T03:27:59.805Z,97.87
2018-06-10T03:30:28.133Z,104.03
2018-06-10T03:32:56.413Z,97.00
2018-06-10T03:35:24.696Z,97.37
2018-06-10T03:37:53.009Z,97.00
2018-06-10T03:40:21.309Z,98.80
2018-06-10T03:42:49.621Z,96.17
2018-06-10T03:45:17.928Z,97.60
2018-06-10T03:47:46.196Z,98.27
2018-06-10T03:50:14.724Z,98.47
2018-06-10T03:52:43.001Z,99.93
2018-06-10T03:55:11.420Z,98.50
2018-06-10T03:57:39.652Z,96.90
2018-06-10T04:00:07.942Z,97.60
2018-06-10T04:02:36.241Z,94.90
2018-06-10T04:05:04.590Z,100.80
2018-06-10T04:07:32.872Z,97.57
2018-06-10T04:10:01.177Z,92.07
2018-06-10T04:12:29.461Z,94.90
2018-06-10T04:14:57.733Z,96.07
2018-06-10T04:17:25.968Z,104.57
2018-06-10T04:19:54.296Z,98.93
2018-06-10T04:22:22.587Z,91.30
2018-06-10T04:24:50.953Z,89.73
2018-06-10T04:27:19.234Z,92.33
2018-06-10T04:29:47.517Z,89.60
2018-06-10T04:32:15.862Z,88.30
2018-06-10T04:34:44.168Z,88.27
2018-06-10T04:37:12.431Z,97.40
2018-06-10T04:39:40.750Z,89.70
2018-06-10T04:42:09.055Z,91.70
2018-06-10T04:44:37.365Z,89.57
2018-06-10T04:47:05.698Z,86.97
2018-06-10T04:49:33.960Z,87.53
2018-06-10T04:52:02.341Z,91.10
2018-06-10T04:54:30.633Z,88.00
2018-06-10T04:56:58.938Z,85.50
2018-06-10T04:59:27.229Z,85.30
2018-06-10T05:01:55.548Z,85.90
2018-06-10T05:04:23.819Z,84.37
2018-06-10T05:06:52.125Z,86.73
2018-06-10T05:09:20.454Z,87.97
2018-06-10T05:11:48.750Z,87.67
2018-06-10T05:14:17.144Z,83.60
2018-06-10T05:16:45.456Z,86.10
2018-06-10T05:19:13.778Z,87.37
2018-06-10T05:21:42.043Z,91.93
2018-06-10T05:24:10.360Z,89.77
2018-06-10T05:26:38.653Z,94.80
2018-06-10T05:29:06.938Z,90.60
2018-06-10T05:31:35.289Z,93.10
2018-06-10T05:34:03.613Z,89.67
2018-06-10T05:36:31.892Z,86.77
2018-06-10T05:39:00.232Z,88.90
2018-06-10T05:41:28.476Z,90.43
2018-06-10T05:43:56.792Z,85.80
2018-06-10T05:46:25.076Z,87.10
2018-06-10T05:48:53.349Z,88.60
2018-06-10T05:51:21.718Z,85.30
2018-06-10T05:53:50.013Z,88.50
2018-06-10T05:56:18.338Z,87.60
2018-06-10T05:58:46.627Z,88.70
2018-06-10T06:01:15.113Z,87.70
2018-06-10T06:03:43.581Z,86.57
2018-06-10T06:06:11.871Z,87.87
2018-06-10T06:08:40.181Z,84.30
2018-06-10T06:11:08.476Z,84.47
2018-06-10T06:13:36.738Z,84.43
2018-06-10T06:16:05.060Z,84.00
2018-06-10T06:18:33.363Z,83.50
2018-06-10T06:21:01.676Z,84.27
2018-06-10T06:23:29.945Z,84.30
2018-06-10T06:25:58.214Z,83.50
2018-06-10T06:28:26.489Z,88.73
2018-06-10T06:30:54.710Z,86.77
2018-06-10T06:33:23.009Z,89.87
2018-06-10T06:35:51.320Z,90.60
2018-06-10T06:38:19.568Z,95.40
2018-06-10T06:40:47.814Z,97.30
2018-06-10T06:43:16.145Z,95.47
2018-06-10T06:45:44.441Z,97.17
2018-06-10T06:48:12.676Z,94.80
2018-06-10T06:50:41.004Z,96.80
2018-06-10T06:53:09.267Z,95.17
2018-06-10T06:55:37.545Z,92.40
2018-06-10T06:58:05.827Z,89.80
2018-06-10T07:00:34.091Z,89.37
2018-06-10T07:03:02.399Z,90.97
2018-06-10T07:05:30.806Z,85.20
2018-06-10T07:07:59.112Z,86.20
2018-06-10T07:10:27.368Z,83.80
2018-06-10T07:12:55.700Z,84.40
2018-06-10T07:15:23.960Z,84.20
2018-06-10T07:17:52.309Z,87.00
2018-06-10T07:20:20.552Z,90.13
2018-06-10T07:22:48.786Z,89.23
2018-06-10T07:25:17.085Z,89.00
2018-06-10T07:27:45.347Z,90.20
2018-06-10T07:30:13.621Z,93.87
2018-06-10T07:32:41.921Z,99.43
2018-06-10T07:35:10.223Z,95.07
2018-06-10T07:37:38.583Z,92.67
2018-06-10T07:40:06.897Z,92.83
2018-06-10T07:42:35.142Z,87.53
2018-06-10T07:45:03.756Z,87.60
2018-06-10T07:47:32.063Z,86.30
2018-06-10T07:50:00.374Z,89.03
2018-06-10T07:52:28.719Z,87.10
2018-06-10T07:54:57.010Z,88.07
2018-06-10T07:57:25.325Z,85.67
2018-06-10T07:59:53.582Z,85.67
2018-06-10T08:02:21.877Z,83.13
2018-06-10T08:04:50.115Z,83.47
2018-06-10T08:07:18.889Z,83.07
2018-06-10T08:09:47.239Z,85.07
2018-06-10T08:12:15.522Z,83.00
2018-06-10T08:14:43.808Z,84.57
2018-06-10T08:17:12.367Z,87.53
2018-06-10T08:19:40.621Z,85.37
2018-06-10T08:22:08.873Z,85.10
2018-06-10T08:24:37.156Z,81.30
2018-06-10T08:27:05.476Z,83.70
2018-06-10T08:29:33.741Z,81.50
2018-06-10T08:32:02.448Z,81.57
2018-06-10T08:34:30.620Z,81.67
2018-06-10T08:36:59.122Z,79.80
2018-06-10T08:39:27.500Z,82.73
2018-06-10T08:41:55.793Z,82.67
2018-06-10T08:44:24.033Z,81.00
2018-06-10T08:46:52.451Z,80.70
2018-06-10T08:49:20.724Z,79.33
2018-06-10T08:51:48.982Z,79.17
2018-06-10T08:54:17.254Z,79.20
2018-06-10T08:56:45.509Z,78.60
2018-06-10T08:59:13.773Z,76.27
2018-06-10T09:01:42.080Z,82.23
2018-06-10T09:04:10.399Z,83.00
2018-06-10T09:06:38.658Z,79.00
2018-06-10T09:09:08.391Z,78.27
2018-06-10T09:11:37.085Z,78.20
2018-06-10T09:14:05.420Z,79.47
2018-06-10T09:16:33.756Z,77.67
2018-06-10T09:19:02.711Z,82.13
2018-06-10T09:21:30.996Z,79.07
2018-06-10T09:23:59.349Z,77.73
2018-06-10T09:26:27.641Z,77.93
2018-06-10T09:28:55.948Z,77.37
2018-06-10T09:31:24.236Z,77.63
2018-06-10T09:33:52.537Z,79.90
2018-06-10T09:36:20.802Z,81.23
2018-06-10T09:38:49.047Z,79.87
2018-06-10T09:41:17.351Z,80.47
2018-06-10T09:43:45.656Z,80.50
2018-06-10T09:46:14.005Z,81.27
2018-06-10T09:48:42.271Z,82.30
2018-06-10T09:51:10.610Z,79.67
2018-06-10T09:53:38.896Z,82.97
2018-06-10T09:56:07.183Z,95.47
2018-06-10T09:58:35.458Z,81.50
2018-06-10T10:01:03.782Z,79.70
2018-06-10T10:03:32.152Z,83.70
2018-06-10T10:06:00.486Z,79.77
2018-06-10T10:08:28.780Z,80.30
2018-06-10T10:10:57.144Z,80.13
2018-06-10T10:13:25.439Z,80.43
2018-06-10T10:15:53.759Z,82.67
2018-06-10T10:18:22.040Z,80.97
2018-06-10T10:20:50.303Z,84.20
2018-06-10T10:23:18.621Z,77.40
2018-06-10T10:25:46.977Z,79.87
2018-06-10T10:28:15.380Z,77.97
2018-06-10T10:30:43.660Z,78.60
2018-06-10T10:33:11.971Z,78.00
2018-06-10T10:35:40.269Z,79.97
2018-06-10T10:38:08.641Z,82.30
2018-06-10T10:40:36.938Z,78.23
2018-06-10T10:43:05.285Z,78.80
2018-06-10T10:45:33.641Z,80.37
2018-06-10T10:48:01.921Z,80.97
2018-06-10T10:50:30.216Z,83.47
2018-06-10T10:52:58.557Z,80.10
2018-06-10T10:55:26.867Z,79.10
2018-06-10T10:57:55.146Z,79.17
2018-06-10T11:00:23.454Z,78.60
2018-06-10T11:02:51.847Z,80.90
2018-06-10T11:05:20.093Z,79.40
2018-06-10T11:07:48.424Z,78.10
2018-06-10T11:10:16.704Z,81.30
2018-06-10T11:12:44.962Z,82.13
2018-06-10T11:15:13.211Z,78.60
2018-06-10T11:17:41.493Z,79.90
2018-06-10T11:20:09.820Z,78.67
2018-06-10T11:22:38.131Z,80.37
2018-06-10T11:25:06.455Z,79.90
2018-06-10T11:27:34.808Z,86.30
2018-06-10T11:30:03.592Z,83.60
2018-06-10T11:32:31.859Z,84.97
2018-06-10T11:35:00.134Z,87.87
2018-06-10T11:37:28.448Z,87.67
2018-06-10T11:39:56.791Z,87.47
2018-06-10T11:42:25.176Z,82.77
2018-06-10T11:44:53.451Z,81.80
2018-06-10T11:47:21.714Z,81.47
2018-06-10T11:49:50.015Z,80.20
2018-06-10T11:52:18.277Z,81.27
2018-06-10T11:54:46.621Z,80.37
2018-06-10T11:57:15.053Z,82.10
2018-06-10T11:59:43.331Z,86.43
2018-06-10T12:02:11.563Z,84.73
2018-06-10T12:04:40.713Z,84.37
2018-06-10T12:07:08.988Z,88.20
2018-06-10T12:09:37.387Z,85.17
2018-06-10T12:12:05.715Z,83.60
2018-06-10T12:14:33.999Z,81.77
2018-06-10T12:17:02.294Z,78.90
2018-06-10T12:19:30.572Z,79.00
2018-06-10T12:21:58.890Z,78.77
2018-06-10T12:24:27.195Z,75.87
2018-06-10T12:26:55.433Z,79.10
2018-06-10T12:29:23.753Z,76.47
2018-06-10T12:31:52.097Z,79.00
2018-06-10T12:34:20.484Z,77.77
2018-06-10T12:36:48.871Z,78.07
2018-06-10T12:39:17.458Z,77.73
2018-06-10T12:41:45.819Z,77.27
2018-06-10T12:44:14.378Z,75.40
2018-06-10T12:46:43.015Z,78.50
2018-06-10T12:49:11.657Z,75.63
2018-06-10T12:51:39.996Z,76.20
2018-06-10T12:54:08.484Z,76.87
2018-06-10T12:56:36.813Z,76.77
2018-06-10T12:59:05.254Z,76.53
2018-06-10T13:01:33.653Z,87.43
2018-06-10T13:04:02.103Z,74.90
2018-06-10T13:06:30.544Z,74.47
2018-06-10T13:08:58.944Z,73.97
2018-06-10T13:11:27.313Z,76.40
2018-06-10T13:13:55.644Z,75.90
2018-06-10T13:16:24.184Z,74.37
2018-06-10T13:18:52.613Z,75.80
2018-06-10T13:21:20.983Z,77.93
2018-06-10T13:23:49.361Z,75.27
2018-06-10T13:26:17.705Z,75.97
2018-06-10T13:28:46.130Z,78.00
2018-06-10T13:31:14.392Z,78.03
2018-06-10T13:33:42.819Z,75.30
2018-06-10T13:36:11.246Z,75.27
2018-06-10T13:38:39.603Z,76.70
2018-06-10T13:41:08.096Z,75.37
2018-06-10T13:43:36.465Z,75.60
2018-06-10T13:46:04.920Z,75.73
2018-06-10T13:48:33.391Z,76.97
2018-06-10T13:51:02.293Z,75.73
2018-06-10T13:53:30.736Z,76.73
2018-06-10T13:55:59.152Z,76.90
2018-06-10T13:58:27.443Z,75.10
2018-06-10T14:00:55.780Z,75.67
2018-06-10T14:03:24.134Z,74.47
2018-06-10T14:05:52.443Z,77.20
2018-06-10T14:08:20.746Z,75.57
2018-06-10T14:10:49.069Z,75.20
2018-06-10T14:13:17.373Z,78.40
2018-06-10T14:15:45.703Z,77.20
2018-06-10T14:18:13.999Z,78.70
2018-06-10T14:20:42.340Z,75.90
2018-06-10T14:23:10.634Z,75.20
2018-06-10T14:25:38.966Z,74.60
2018-06-10T14:28:07.305Z,77.10
2018-06-10T14:30:35.573Z,76.40
2018-06-10T14:33:03.880Z,78.27
2018-06-10T14:35:32.222Z,82.27
2018-06-10T14:38:00.495Z,80.03
2018-06-10T14:40:28.866Z,77.77
2018-06-10T14:42:57.169Z,79.00
2018-06-10T14:45:25.449Z,79.27
2018-06-10T14:47:53.792Z,79.70
2018-06-10T14:50:22.074Z,77.57
2018-06-10T14:52:51.017Z,78.17
2018-06-10T14:55:19.355Z,75.97
2018-06-10T14:57:47.596Z,78.00
2018-06-10T15:00:15.926Z,80.70
2018-06-10T15:02:44.262Z,79.37
2018-06-10T15:05:12.611Z,78.37
2018-06-10T15:07:40.910Z,80.20
2018-06-10T15:10:09.271Z,77.60
2018-06-10T15:12:37.556Z,77.77
2018-06-10T15:15:05.885Z,79.80
2018-06-10T15:17:34.241Z,81.90
2018-06-10T15:20:02.541Z,77.50
2018-06-10T15:22:30.879Z,77.57
2018-06-10T15:24:59.235Z,77.37
2018-06-10T15:27:27.612Z,76.57
2018-06-10T15:29:55.939Z,78.53
2018-06-10T15:32:24.329Z,78.67
2018-06-10T15:34:58.680Z,79.40
2018-06-10T15:37:26.986Z,81.10
2018-06-10T15:39:55.268Z,81.63
2018-06-10T15:42:23.606Z,84.77
2018-06-10T15:44:51.868Z,82.07
2018-06-10T15:47:20.146Z,78.17
2018-06-10T15:49:48.516Z,83.93
2018-06-10T15:52:16.794Z,79.47
2018-06-10T15:54:45.310Z,80.33
2018-06-10T15:57:13.626Z,82.53
2018-06-10T15:59:42.034Z,80.40
2018-06-10T16:02:10.371Z,79.30
2018-06-10T16:04:38.638Z,79.30
2018-06-10T16:07:06.906Z,78.37
2018-06-10T16:09:35.298Z,80.90
2018-06-10T16:12:03.525Z,79.13
2018-06-10T16:14:31.895Z,78.57
2018-06-10T16:17:02.185Z,77.97
2018-06-10T16:19:30.488Z,79.20
2018-06-10T16:21:58.764Z,80.07
2018-06-10T16:24:27.057Z,79.40
2018-06-10T16:26:55.390Z,78.17
2018-06-10T16:29:23.670Z,79.60
2018-06-10T16:31:51.932Z,78.87
2018-06-10T16:34:20.251Z,84.17
2018-06-10T16:36:48.543Z,80.40
2018-06-10T16:39:16.813Z,78.27
2018-06-10T16:41:45.125Z,79.37
2018-06-10T16:44:13.393Z,158.70
2018-06-10T16:46:41.724Z,95.90
2018-06-10T16:49:10.096Z,121.80
2018-06-10T16:51:38.384Z,115.23
2018-06-10T16:54:06.660Z,96.93
2018-06-10T16:56:35.568Z,100.80
2018-06-10T16:59:03.819Z,87.77
2018-06-10T17:01:32.096Z,88.00
2018-06-10T17:04:00.447Z,83.63
2018-06-10T17:06:28.743Z,79.97
2018-06-10T17:08:57.071Z,84.13
2018-06-10T17:11:25.369Z,79.30
2018-06-10T17:13:53.684Z,80.20
2018-06-10T17:16:21.961Z,78.90
2018-06-10T17:18:50.254Z,80.23
2018-06-10T17:21:18.560Z,78.87
2018-06-10T17:23:46.817Z,79.87
2018-06-10T17:26:15.127Z,90.47
2018-06-10T17:28:43.437Z,82.90
2018-06-10T17:31:11.740Z,81.90
2018-06-10T17:33:40.115Z,83.13
2018-06-10T17:38:53.183Z,78.40
2018-06-10T17:41:21.467Z,161.40
2018-06-10T17:43:49.788Z,222.63
2018-06-10T17:46:18.079Z,82.43
2018-06-10T17:48:46.384Z,79.70
2018-06-10T17:51:14.696Z,83.10
2018-06-10T17:53:43.032Z,86.60
2018-06-10T17:56:11.357Z,81.83
2018-06-10T17:58:40.158Z,81.83
2018-06-10T18:01:09.474Z,82.67
2018-06-10T18:03:37.830Z,81.30
2018-06-10T18:06:06.088Z,79.27
2018-06-10T18:08:34.365Z,82.10
2018-06-10T18:11:02.673Z,79.13
2018-06-10T18:13:31.067Z,82.17
2018-06-10T18:15:59.356Z,84.77
2018-06-10T18:18:27.675Z,81.83
2018-06-10T18:20:56.025Z,79.90
2018-06-10T18:23:24.266Z,85.17
2018-06-10T18:25:52.519Z,81.47
2018-06-10T18:28:20.836Z,81.37
2018-06-10T18:30:49.084Z,81.67
2018-06-10T18:33:17.405Z,81.57
2018-06-10T18:35:45.795Z,83.60
2018-06-10T18:38:14.128Z,87.10
2018-06-10T18:40:42.586Z,94.80
2018-06-10T18:43:11.277Z,90.70
2018-06-10T18:45:39.635Z,88.37
2018-06-10T18:48:07.966Z,90.90
2018-06-10T18:50:36.269Z,91.30
2018-06-10T18:53:04.528Z,93.47
2018-06-10T18:55:32.820Z,92.40
2018-06-10T18:58:01.097Z,90.70
2018-06-10T19:00:29.967Z,92.33
2018-06-10T19:02:58.286Z,85.90
2018-06-10T19:05:26.537Z,92.53
2018-06-10T19:07:54.829Z,86.13
2018-06-10T19:10:23.106Z,84.90
2018-06-10T19:12:51.305Z,85.30
2018-06-10T19:15:19.572Z,85.37
2018-06-10T19:17:47.816Z,92.90
2018-06-10T19:20:16.070Z,88.50
2018-06-10T19:22:44.389Z,89.40
2018-06-10T19:25:12.684Z,91.60
2018-06-10T19:27:40.952Z,94.30
2018-06-10T19:30:09.261Z,92.57
2018-06-10T19:32:37.554Z,97.50
2018-06-10T19:35:05.883Z,93.77
2018-06-10T19:37:34.223Z,96.47
2018-06-10T19:40:02.514Z,92.97
2018-06-10T19:42:30.751Z,92.77
2018-06-10T19:44:58.986Z,91.00
2018-06-10T19:47:27.251Z,90.33
2018-06-10T19:49:55.609Z,92.90
2018-06-10T19:52:24.042Z,97.33
2018-06-10T19:54:52.398Z,91.70
2018-06-10T19:57:20.647Z,89.30
2018-06-10T19:59:48.944Z,91.07
2018-06-10T20:02:17.431Z,93.67
2018-06-10T20:04:45.717Z,93.87
2018-06-10T20:07:13.929Z,90.73
2018-06-10T20:09:42.200Z,90.87
2018-06-10T20:12:10.444Z,93.63
2018-06-10T20:14:38.706Z,98.83
2018-06-10T20:17:07.030Z,91.30
2018-06-10T20:19:35.257Z,97.43
2018-06-10T20:22:03.545Z,101.80
2018-06-10T20:24:31.817Z,94.83
2018-06-10T20:27:00.100Z,95.27
2018-06-10T20:29:28.346Z,93.90
2018-06-10T20:31:56.969Z,93.30
2018-06-10T20:34:25.207Z,99.03
2018-06-10T20:36:53.487Z,96.07
2018-06-10T20:39:21.738Z,95.37
2018-06-10T20:41:50.008Z,92.40
2018-06-10T20:44:18.282Z,90.90
2018-06-10T20:46:46.573Z,94.27
2018-06-10T20:49:14.843Z,96.50
2018-06-10T20:51:43.075Z,99.17
2018-06-10T20:54:11.366Z,97.27
2018-06-10T20:56:39.614Z,97.43
2018-06-10T20:59:07.901Z,91.40
2018-06-10T21:01:36.225Z,91.37
2018-06-10T21:04:05.189Z,89.80
2018-06-10T21:06:33.437Z,93.07
2018-06-10T21:09:01.738Z,89.57
2018-06-10T21:11:29.980Z,95.03
2018-06-10T21:13:58.220Z,95.80
2018-06-10T21:16:26.461Z,98.03
2018-06-10T21:18:54.739Z,101.23
2018-06-10T21:21:23.033Z,99.73
2018-06-10T21:23:51.273Z,93.90
2018-06-10T21:26:19.537Z,100.97
2018-06-10T21:28:47.807Z,96.70
2018-06-10T21:31:16.069Z,96.57
2018-06-10T21:33:44.338Z,99.97
2018-06-10T21:36:12.592Z,102.97
2018-06-10T21:38:40.842Z,95.70
2018-06-10T21:41:09.124Z,92.90
2018-06-10T21:43:37.393Z,94.83
2018-06-10T21:46:05.650Z,98.70
2018-06-10T21:48:33.947Z,95.10
2018-06-10T21:51:02.247Z,101.70
2018-06-10T21:53:30.496Z,98.53
2018-06-10T21:55:58.741Z,99.77
2018-06-10T21:58:27.040Z,89.00
2018-06-10T22:00:56.998Z,93.83
2018-06-10T22:03:25.368Z,100.93
2018-06-10T22:05:53.701Z,90.40
2018-06-10T22:08:21.961Z,91.57
2018-06-10T22:10:50.199Z,96.87
2018-06-10T22:13:18.548Z,94.50
2018-06-10T22:15:46.845Z,90.23
2018-06-10T22:18:15.103Z,88.90
2018-06-10T22:20:43.352Z,85.03
2018-06-10T22:23:11.610Z,94.90
2018-06-10T22:25:39.864Z,96.13
2018-06-10T22:28:08.141Z,102.67
2018-06-10T22:30:36.405Z,100.60
2018-06-10T22:33:04.680Z,95.00
2018-06-10T22:35:32.983Z,91.50
2018-06-10T22:38:01.192Z,89.17
2018-06-10T22:40:29.454Z,92.30
2018-06-10T22:42:57.759Z,92.20
2018-06-10T22:45:26.048Z,93.83
2018-06-10T22:47:54.328Z,93.27
2018-06-10T22:50:22.568Z,86.77
2018-06-10T22:53:02.344Z,93.37
2018-06-10T22:55:30.624Z,98.23
2018-06-10T22:57:58.936Z,93.23
2018-06-10T23:00:27.187Z,94.03
2018-06-10T23:02:55.992Z,90.50
2018-06-10T23:05:24.324Z,89.20
2018-06-10T23:07:52.626Z,89.03
2018-06-10T23:10:20.844Z,92.90
2018-06-10T23:12:49.146Z,90.27
2018-06-10T23:15:17.386Z,92.67
2018-06-10T23:17:45.632Z,92.27
2018-06-10T23:20:13.911Z,95.03
2018-06-10T23:22:42.217Z,93.50
2018-06-10T23:25:10.468Z,92.10
2018-06-10T23:27:38.720Z,92.57
2018-06-10T23:30:07.085Z,97.83
2018-06-10T23:32:35.354Z,95.53
2018-06-10T23:35:03.663Z,94.23
2018-06-10T23:37:31.920Z,97.70
2018-06-10T23:40:00.207Z,93.03
2018-06-10T23:42:28.458Z,89.40
2018-06-10T23:44:56.719Z,90.20
2018-06-10T23:47:24.978Z,91.30
2018-06-10T23:49:53.193Z,95.63
2018-06-10T23:52:21.544Z,92.20
2018-06-10T23:54:49.756Z,90.10
2018-06-10T23:57:18.046Z,91.33
2018-06-10T23:59:46.276Z,90.53
